Flight Track Log - Related Links

Times and Time Zones

All times are in EDT time to prevent confusion due to time zone crossing. See the EJA721P flight status page for this flight to view local times or setup timezone preferences in your user account.

Time Position Orientation Groundspeed Altitude Reporting Facility
EDT Latitude Longitude Course Direction KTS MPH feet Rate Location/Type
Thu 10:45:49 AM 34.1733 -118.3528 321° Northwest 203 234 2,100  Level Los Angeles Center
Thu 10:46:51 AM 34.1283 -118.4003 221° Southwest 213 245 4,500 3,194 Climbing Los Angeles Center
Thu 10:47:53 AM 34.1239 -118.4783 266° West 274 315 8,700 3,435 Climbing Los Angeles Center
Thu 10:48:55 AM 34.1886 -118.5389 322° Northwest 295 339 11,600 2,855 Climbing Los Angeles Center
Thu 10:49:57 AM 34.2719 -118.6231 320° Northwest 325 374 14,600 2,177 Climbing Los Angeles Center
Thu 10:50:59 AM 34.3589 -118.6686 337° Northwest 350 403 16,100 2,032 Climbing Los Angeles Center
Thu 10:51:00 AM 34.9671 -118.9838 321° Northwest  Level FlightAware Approximate
Thu 10:52:01 AM 34.4497 -118.7058 341° North 345 397 18,800  Level Los Angeles Center
Thu 10:53:03 AM 34.5406 -118.7450 340° North 348 400 21,900 2,516 Climbing Los Angeles Center
Thu 10:54:05 AM 34.6356 -118.7872 340° North 366 421 24,000 1,790 Climbing Los Angeles Center
Thu 10:55:07 AM 34.7431 -118.8361 340° North 410 472 25,600 968 Climbing Los Angeles Center
Thu 10:56:09 AM 34.8783 -118.9236 332° Northwest 476 548 26,000 194 Climbing Los Angeles Center
Thu 10:57:11 AM 34.9783 -119.0297 319° Northwest 503 579 26,000  Level Los Angeles Center
Thu 10:58:13 AM 35.0611 -119.1739 305° West 520 598 26,000  Level Los Angeles Center
Thu 10:59:15 AM 35.1381 -119.3203 303° West 515 593 26,000  Level Los Angeles Center
Thu 11:00:17 AM 35.2156 -119.4633 304° West 506 582 26,000  Level Los Angeles Center
Thu 11:01:19 AM 35.3092 -119.6356 304° West 506 582 26,000  Level Los Angeles Center
Thu 11:02:21 AM 35.3878 -119.7819 303° West 512 589 26,000  Level Los Angeles Center
Thu 11:03:23 AM 35.4642 -119.9267 303° West 508 585 26,000  Level Los Angeles Center
Thu 11:04:25 AM 35.5414 -120.0711 303° West 514 592 26,000  Level Los Angeles Center
Thu 11:05:27 AM 35.6158 -120.2128 303° West 509 586 26,000  Level Los Angeles Center
Thu 11:06:06 AM 35.6753 -120.3297 302° West 510 587 26,000  Level Oakland Center
Thu 11:07:07 AM 35.7450 -120.4792 300° West 509 586 26,000  Level Oakland Center
Thu 11:08:08 AM 35.8397 -120.6083 312° West 511 588 26,000  Level Oakland Center
Thu 11:09:10 AM 35.9369 -120.7353 313° West 508 585 26,000  Level Oakland Center
Thu 11:10:11 AM 36.0350 -120.8622 314° West 510 587 26,000  Level Oakland Center
Thu 11:11:12 AM 36.1328 -120.9894 314° West 511 588 26,000 -98 Level Oakland Center
Thu 11:12:14 AM 36.2494 -121.1419 314° West 511 588 25,800 -1,366 Descending Oakland Center
Thu 11:13:15 AM 36.3475 -121.2714 313° West 513 590 23,200 -2,557 Descending Oakland Center
Thu 11:14:16 AM 36.4381 -121.3936 313° West 487 560 20,600 -2,390 Descending Oakland Center
Thu 11:15:18 AM 36.5300 -121.4908 320° Northwest 450 518 18,300 -2,195 Descending Oakland Center
Thu 11:16:19 AM 36.6236 -121.5708 326° Northwest 427 491 16,100 -2,115 Descending Oakland Center
Thu 11:17:20 AM 36.7317 -121.5964 349° North 418 481 14,000 -2,000 Descending Oakland Center
Thu 11:18:22 AM 36.8350 -121.5861 North 396 456 12,000 -1,854 Descending Oakland Center
Thu 11:19:23 AM 36.9186 -121.6028 351° North 354 407 10,200 -1,805 Descending Oakland Center
Thu 11:20:25 AM 36.9958 -121.6411 338° Northwest 319 367 8,300 -1,951 Descending Oakland Center
Thu 11:21:26 AM 37.0889 -121.6825 340° North 303 349 6,200 -1,579 Descending Oakland Center
Thu 11:22:19 AM 37.1500 -121.7167 336° Northwest 275 316 5,300 -1,062 Descending Northern Cal TRACON
Thu 11:23:19 AM 37.2167 -121.7667 329° Northwest 259 298 4,200 -1,350 Descending Northern Cal TRACON
Thu 11:24:19 AM 37.2667 -121.8167 321° Northwest 237 273 2,600 -1,368 Descending Northern Cal TRACON
Thu 11:25:13 AM 37.3000 -121.8667 310° West 180 207 1,600 -895 Descending Northern Cal TRACON
Thu 11:26:13 AM 37.3333 -121.9000 322° Northwest 139 160 900 -700 Descending Northern Cal TRACON
Thu 11:29:00 AM 37.3500 -121.9167 North  Level FlightAware Approximate

Login

Don't have an account? Register now (free) for customized features, flight alerts, and more!